sensor_id;sensor_type;location;lat;lon;timestamp;pressure;altitude;pressure_sealevel;temperature;humidity
15193;BME280;7697;51.630;7.484;2023-06-14T00:01:19;-17779.66;;;21.20;40.80
15193;BME280;7697;51.630;7.484;2023-06-14T00:06:22;-17777.13;;;21.13;41.00
15193;BME280;7697;51.630;7.484;2023-06-14T00:11:24;-17773.78;;;21.03;40.90
15193;BME280;7697;51.630;7.484;2023-06-14T00:16:28;-17774.78;;;21.06;40.85
15193;BME280;7697;51.630;7.484;2023-06-14T00:21:30;-17772.44;;;20.98;40.83
15193;BME280;7697;51.630;7.484;2023-06-14T00:26:32;-17768.25;;;20.86;40.81
15193;BME280;7697;51.630;7.484;2023-06-14T00:31:35;-17765.38;;;20.77;41.20
15193;BME280;7697;51.630;7.484;2023-06-14T00:36:37;-17763.22;;;20.71;40.89
15193;BME280;7697;51.630;7.484;2023-06-14T00:41:39;-17760.34;;;20.62;40.92
15193;BME280;7697;51.630;7.484;2023-06-14T00:46:42;-17758.34;;;20.56;41.10
15193;BME280;7697;51.630;7.484;2023-06-14T00:51:44;-17757.84;;;20.54;41.30
15193;BME280;7697;51.630;7.484;2023-06-14T00:56:46;-17755.16;;;20.46;41.32
15193;BME280;7697;51.630;7.484;2023-06-14T01:01:50;-17751.97;;;20.37;41.74
15193;BME280;7697;51.630;7.484;2023-06-14T01:06:58;-17751.63;;;20.36;41.66
15193;BME280;7697;51.630;7.484;2023-06-14T01:12:15;-17750.63;;;20.33;41.55
15193;BME280;7697;51.630;7.484;2023-06-14T01:17:23;-17747.44;;;20.23;41.88
15193;BME280;7697;51.630;7.484;2023-06-14T01:22:28;-17746.94;;;20.21;41.62
15193;BME280;7697;51.630;7.484;2023-06-14T01:27:32;-17744.75;;;20.15;41.89
15193;BME280;7697;51.630;7.484;2023-06-14T01:32:33;-17741.06;;;20.04;41.67
15193;BME280;7697;51.630;7.484;2023-06-14T01:37:35;-17740.03;;;20.01;42.11
15193;BME280;7697;51.630;7.484;2023-06-14T01:42:39;-17740.56;;;20.02;42.05
15193;BME280;7697;51.630;7.484;2023-06-14T01:47:41;-17736.19;;;19.89;42.30
15193;BME280;7697;51.630;7.484;2023-06-14T01:52:44;-17734.00;;;19.82;42.62
15193;BME280;7697;51.630;7.484;2023-06-14T01:57:47;-17730.31;;;19.71;42.58
15193;BME280;7697;51.630;7.484;2023-06-14T02:02:49;-17727.97;;;19.64;42.87
15193;BME280;7697;51.630;7.484;2023-06-14T02:07:51;-17725.78;;;19.58;43.03
15193;BME280;7697;51.630;7.484;2023-06-14T02:12:55;-17724.78;;;19.55;43.19
15193;BME280;7697;51.630;7.484;2023-06-14T02:17:56;-17724.28;;;19.53;43.02
15193;BME280;7697;51.630;7.484;2023-06-14T02:23:00;-17720.75;;;19.42;43.27
15193;BME280;7697;51.630;7.484;2023-06-14T02:28:03;-17721.41;;;19.44;43.55
15193;BME280;7697;51.630;7.484;2023-06-14T02:33:05;-17719.06;;;19.37;43.80
15193;BME280;7697;51.630;7.484;2023-06-14T02:38:07;-17718.72;;;19.36;43.50
15193;BME280;7697;51.630;7.484;2023-06-14T02:43:10;-17717.88;;;19.34;43.92
15193;BME280;7697;51.630;7.484;2023-06-14T02:48:12;-17716.88;;;19.31;44.00
15193;BME280;7697;51.630;7.484;2023-06-14T02:53:14;-17717.22;;;19.32;44.01
15193;BME280;7697;51.630;7.484;2023-06-14T02:58:17;-17716.22;;;19.29;44.28
15193;BME280;7697;51.630;7.484;2023-06-14T03:03:19;-17713.03;;;19.19;44.47
15193;BME280;7697;51.630;7.484;2023-06-14T03:08:22;-17709.50;;;19.08;44.70
15193;BME280;7697;51.630;7.484;2023-06-14T03:13:28;-17707.16;;;19.01;45.74
15193;BME280;7697;51.630;7.484;2023-06-14T03:18:32;-17703.97;;;18.92;45.83
15193;BME280;7697;51.630;7.484;2023-06-14T03:23:35;-17701.44;;;18.84;45.63
15193;BME280;7697;51.630;7.484;2023-06-14T03:28:39;-17701.28;;;18.84;45.57
15193;BME280;7697;51.630;7.484;2023-06-14T03:33:41;-17697.75;;;18.73;45.89
15193;BME280;7697;51.630;7.484;2023-06-14T03:38:42;-17695.25;;;18.65;45.99
15193;BME280;7697;51.630;7.484;2023-06-14T03:43:46;-17695.25;;;18.65;46.28
15193;BME280;7697;51.630;7.484;2023-06-14T03:48:48;-17692.72;;;18.58;46.48
15193;BME280;7697;51.630;7.484;2023-06-14T03:53:50;-17691.53;;;18.54;46.83
15193;BME280;7697;51.630;7.484;2023-06-14T03:58:53;-17689.88;;;18.49;47.09
15193;BME280;7697;51.630;7.484;2023-06-14T04:03:56;-17687.53;;;18.42;47.14
15193;BME280;7697;51.630;7.484;2023-06-14T04:08:59;-17681.81;;;18.25;47.94
15193;BME280;7697;51.630;7.484;2023-06-14T04:14:05;-17680.47;;;18.21;48.31
15193;BME280;7697;51.630;7.484;2023-06-14T04:19:07;-17680.47;;;18.21;48.72
15193;BME280;7697;51.630;7.484;2023-06-14T04:24:09;-17683.81;;;18.31;48.63
15193;BME280;7697;51.630;7.484;2023-06-14T04:29:14;-17684.16;;;18.32;48.81
15193;BME280;7697;51.630;7.484;2023-06-14T04:34:19;-17688.53;;;18.45;49.19
15193;BME280;7697;51.630;7.484;2023-06-14T04:39:22;-17685.34;;;18.35;49.05
15193;BME280;7697;51.630;7.484;2023-06-14T04:44:27;-17685.50;;;18.36;49.40
15193;BME280;7697;51.630;7.484;2023-06-14T04:49:32;-17688.34;;;18.45;49.60
15193;BME280;7697;51.630;7.484;2023-06-14T04:54:34;-17689.88;;;18.49;49.66
15193;BME280;7697;51.630;7.484;2023-06-14T04:59:38;-17691.72;;;18.55;49.85
15193;BME280;7697;51.630;7.484;2023-06-14T05:04:40;-17689.88;;;18.49;50.10
15193;BME280;7697;51.630;7.484;2023-06-14T05:09:42;-17693.06;;;18.59;49.92
15193;BME280;7697;51.630;7.484;2023-06-14T05:14:46;-17696.09;;;18.68;50.04
15193;BME280;7697;51.630;7.484;2023-06-14T05:19:47;-17696.91;;;18.70;50.37
15193;BME280;7697;51.630;7.484;2023-06-14T05:24:49;-17696.59;;;18.69;50.91
15193;BME280;7697;51.630;7.484;2023-06-14T05:29:52;-17698.94;;;18.77;51.29
15193;BME280;7697;51.630;7.484;2023-06-14T05:34:56;-17701.78;;;18.85;51.13
15193;BME280;7697;51.630;7.484;2023-06-14T05:39:58;-17702.78;;;18.88;51.19
15193;BME280;7697;51.630;7.484;2023-06-14T05:45:01;-17707.31;;;19.02;51.15
15193;BME280;7697;51.630;7.484;2023-06-14T05:50:03;-17710.69;;;19.12;51.11
15193;BME280;7697;51.630;7.484;2023-06-14T05:55:06;-17713.69;;;19.21;50.80
15193;BME280;7697;51.630;7.484;2023-06-14T06:00:10;-17717.22;;;19.32;50.45
15193;BME280;7697;51.630;7.484;2023-06-14T06:05:14;-17724.28;;;19.53;50.21
15193;BME280;7697;51.630;7.484;2023-06-14T06:10:17;-17731.81;;;19.76;49.38
15193;BME280;7697;51.630;7.484;2023-06-14T06:15:20;-17735.34;;;19.86;49.08
15193;BME280;7697;51.630;7.484;2023-06-14T06:20:22;-17737.19;;;19.92;48.77
15193;BME280;7697;51.630;7.484;2023-06-14T06:25:28;-17746.25;;;20.19;48.60
15193;BME280;7697;51.630;7.484;2023-06-14T06:30:33;-17753.13;;;20.40;48.34
15193;BME280;7697;51.630;7.484;2023-06-14T06:35:36;-17758.19;;;20.55;47.57
15193;BME280;7697;51.630;7.484;2023-06-14T06:40:37;-17761.69;;;20.66;47.52
15193;BME280;7697;51.630;7.484;2023-06-14T06:50:42;-17778.31;;;21.16;46.74
15193;BME280;7697;51.630;7.484;2023-06-14T06:55:44;-17783.19;;;21.31;46.11
15193;BME280;7697;51.630;7.484;2023-06-14T07:00:47;-17791.91;;;21.57;46.06
15193;BME280;7697;51.630;7.484;2023-06-14T07:05:49;-17794.59;;;21.65;45.35
15193;BME280;7697;51.630;7.484;2023-06-14T07:10:51;-17800.97;;;21.85;45.44
15193;BME280;7697;51.630;7.484;2023-06-14T07:15:57;-17808.34;;;22.07;44.99
15193;BME280;7697;51.630;7.484;2023-06-14T07:21:00;-17810.69;;;22.14;44.16
15193;BME280;7697;51.630;7.484;2023-06-14T07:26:01;-17815.41;;;22.28;44.03
15193;BME280;7697;51.630;7.484;2023-06-14T07:31:05;-17821.78;;;22.48;43.64
15193;BME280;7697;51.630;7.484;2023-06-14T07:36:07;-17825.13;;;22.58;42.58
15193;BME280;7697;51.630;7.484;2023-06-14T07:41:09;-17832.19;;;22.79;42.39
15193;BME280;7697;51.630;7.484;2023-06-14T07:46:12;-17842.75;;;23.11;41.46
15193;BME280;7697;51.630;7.484;2023-06-14T07:51:14;-17845.94;;;23.20;41.01
15193;BME280;7697;51.630;7.484;2023-06-14T07:56:17;-17849.47;;;23.31;39.84
15193;BME280;7697;51.630;7.484;2023-06-14T08:01:20;-17852.16;;;23.39;39.67
15193;BME280;7697;51.630;7.484;2023-06-14T08:06:24;-17856.69;;;23.53;39.92
15193;BME280;7697;51.630;7.484;2023-06-14T08:11:26;-17863.06;;;23.72;38.51
15193;BME280;7697;51.630;7.484;2023-06-14T08:16:29;-17863.72;;;23.74;38.29
15193;BME280;7697;51.630;7.484;2023-06-14T08:21:31;-17872.44;;;24.01;38.33
15193;BME280;7697;51.630;7.484;2023-06-14T08:26:33;-17877.81;;;24.17;37.99
15193;BME280;7697;51.630;7.484;2023-06-14T08:31:38;-17890.56;;;24.55;36.65
15193;BME280;7697;51.630;7.484;2023-06-14T08:36:40;-17894.94;;;24.68;37.10
15193;BME280;7697;51.630;7.484;2023-06-14T08:41:43;-17901.31;;;24.88;36.23
15193;BME280;7697;51.630;7.484;2023-06-14T08:46:49;-17902.16;;;24.90;35.48
15193;BME280;7697;51.630;7.484;2023-06-14T08:51:57;-17903.50;;;24.94;35.52
15193;BME280;7697;51.630;7.484;2023-06-14T08:56:59;-17912.38;;;25.21;35.83
15193;BME280;7697;51.630;7.484;2023-06-14T09:02:03;-17911.72;;;25.19;34.81
15193;BME280;7697;51.630;7.484;2023-06-14T09:07:06;-17919.09;;;25.41;34.16
15193;BME280;7697;51.630;7.484;2023-06-14T09:12:08;-17926.47;;;25.64;34.17
15193;BME280;7697;51.630;7.484;2023-06-14T09:17:15;-17935.88;;;25.92;34.40
15193;BME280;7697;51.630;7.484;2023-06-14T09:22:17;-17940.56;;;26.06;34.60
15193;BME280;7697;51.630;7.484;2023-06-14T09:27:18;-17948.94;;;26.32;34.24
15193;BME280;7697;51.630;7.484;2023-06-14T09:32:22;-17962.72;;;26.73;33.69
15193;BME280;7697;51.630;7.484;2023-06-14T09:37:28;-17959.69;;;26.64;33.90
15193;BME280;7697;51.630;7.484;2023-06-14T09:42:31;-17962.88;;;26.74;34.12
15193;BME280;7697;51.630;7.484;2023-06-14T09:47:38;-17975.78;;;27.13;33.98
15193;BME280;7697;51.630;7.484;2023-06-14T09:52:42;-17989.03;;;27.53;33.19
15193;BME280;7697;51.630;7.484;2023-06-14T09:57:45;-17983.69;;;27.37;32.68
15193;BME280;7697;51.630;7.484;2023-06-14T10:02:54;-17991.41;;;27.60;33.15
15193;BME280;7697;51.630;7.484;2023-06-14T10:08:04;-17991.91;;;27.61;32.08
15193;BME280;7697;51.630;7.484;2023-06-14T10:13:09;-17994.06;;;27.68;31.98
15193;BME280;7697;51.630;7.484;2023-06-14T10:18:21;-17992.41;;;27.63;32.19
15193;BME280;7697;51.630;7.484;2023-06-14T10:23:26;-17995.09;;;27.71;31.76
15193;BME280;7697;51.630;7.484;2023-06-14T10:28:30;-17994.25;;;27.69;32.06
15193;BME280;7697;51.630;7.484;2023-06-14T10:33:34;-17996.75;;;27.76;32.51
15193;BME280;7697;51.630;7.484;2023-06-14T10:38:37;-17996.25;;;27.75;32.19
15193;BME280;7697;51.630;7.484;2023-06-14T10:43:39;-18000.13;;;27.86;32.83
15193;BME280;7697;51.630;7.484;2023-06-14T10:48:42;-18009.66;;;28.15;32.17
15193;BME280;7697;51.630;7.484;2023-06-14T10:53:44;-18023.09;;;28.56;31.81
15193;BME280;7697;51.630;7.484;2023-06-14T10:58:46;-18020.06;;;28.47;31.88
15193;BME280;7697;51.630;7.484;2023-06-14T11:03:52;-18022.75;;;28.55;32.01
15193;BME280;7697;51.630;7.484;2023-06-14T11:14:23;-18034.34;;;28.90;31.44
15193;BME280;7697;51.630;7.484;2023-06-14T11:19:26;-18039.19;;;29.04;30.56
15193;BME280;7697;51.630;7.484;2023-06-14T11:24:29;-18037.19;;;28.98;30.67
15193;BME280;7697;51.630;7.484;2023-06-14T11:29:31;-18028.47;;;28.72;31.60
15193;BME280;7697;51.630;7.484;2023-06-14T11:34:34;-18033.66;;;28.88;31.38
15193;BME280;7697;51.630;7.484;2023-06-14T11:39:35;-18040.34;;;29.08;30.52
15193;BME280;7697;51.630;7.484;2023-06-14T11:44:37;-18030.31;;;28.78;31.01
15193;BME280;7697;51.630;7.484;2023-06-14T11:49:40;-18034.50;;;28.90;31.36
15193;BME280;7697;51.630;7.484;2023-06-14T11:54:43;-18036.50;;;28.96;30.51
15193;BME280;7697;51.630;7.484;2023-06-14T11:59:46;-18036.84;;;28.97;30.38
15193;BME280;7697;51.630;7.484;2023-06-14T12:04:49;-18030.13;;;28.77;30.61
15193;BME280;7697;51.630;7.484;2023-06-14T12:10:04;-18039.34;;;29.05;30.51
15193;BME280;7697;51.630;7.484;2023-06-14T12:15:09;-18051.25;;;29.41;30.71
15193;BME280;7697;51.630;7.484;2023-06-14T12:20:14;-18059.47;;;29.66;30.00
15193;BME280;7697;51.630;7.484;2023-06-14T12:25:24;-18063.66;;;29.78;29.78
15193;BME280;7697;51.630;7.484;2023-06-14T12:30:28;-18069.22;;;29.95;29.66
15193;BME280;7697;51.630;7.484;2023-06-14T12:35:31;-18070.38;;;29.99;30.07
15193;BME280;7697;51.630;7.484;2023-06-14T12:40:33;-18069.38;;;29.96;29.62
15193;BME280;7697;51.630;7.484;2023-06-14T12:45:38;-18060.31;;;29.68;29.56
15193;BME280;7697;51.630;7.484;2023-06-14T12:50:41;-18068.88;;;29.94;29.86
15193;BME280;7697;51.630;7.484;2023-06-14T12:55:43;-18078.44;;;30.23;28.73
15193;BME280;7697;51.630;7.484;2023-06-14T13:00:45;-18076.41;;;30.17;29.49
15193;BME280;7697;51.630;7.484;2023-06-14T13:05:49;-18061.66;;;29.72;28.60
15193;BME280;7697;51.630;7.484;2023-06-14T13:10:51;-18053.28;;;29.47;28.99
15193;BME280;7697;51.630;7.484;2023-06-14T13:15:52;-18053.94;;;29.49;29.52
15193;BME280;7697;51.630;7.484;2023-06-14T13:20:55;-18056.63;;;29.57;29.62
15193;BME280;7697;51.630;7.484;2023-06-14T13:25:57;-18058.97;;;29.64;29.52
15193;BME280;7697;51.630;7.484;2023-06-14T13:30:59;-18052.94;;;29.46;28.94
15193;BME280;7697;51.630;7.484;2023-06-14T13:36:03;-18048.91;;;29.34;29.38
15193;BME280;7697;51.630;7.484;2023-06-14T13:41:05;-18048.25;;;29.32;29.49
15193;BME280;7697;51.630;7.484;2023-06-14T13:46:07;-18051.09;;;29.40;29.23
15193;BME280;7697;51.630;7.484;2023-06-14T13:51:10;-18061.00;;;29.70;29.46
15193;BME280;7697;51.630;7.484;2023-06-14T13:56:12;-18061.31;;;29.71;29.37
15193;BME280;7697;51.630;7.484;2023-06-14T14:01:13;-18059.97;;;29.67;29.14
15193;BME280;7697;51.630;7.484;2023-06-14T14:06:17;-18053.94;;;29.49;29.90
15193;BME280;7697;51.630;7.484;2023-06-14T14:11:19;-18060.66;;;29.69;29.29
15193;BME280;7697;51.630;7.484;2023-06-14T14:16:21;-18062.84;;;29.76;28.78
15193;BME280;7697;51.630;7.484;2023-06-14T14:21:24;-18088.16;;;30.52;28.03
15193;BME280;7697;51.630;7.484;2023-06-14T14:26:27;-18064.84;;;29.82;28.86
15193;BME280;7697;51.630;7.484;2023-06-14T14:31:28;-18060.47;;;29.69;29.09
15193;BME280;7697;51.630;7.484;2023-06-14T14:36:31;-18061.31;;;29.71;28.77
15193;BME280;7697;51.630;7.484;2023-06-14T14:41:36;-18042.22;;;29.14;29.03
15193;BME280;7697;51.630;7.484;2023-06-14T14:46:40;-18037.00;;;28.98;29.60
15193;BME280;7697;51.630;7.484;2023-06-14T14:51:43;-18043.53;;;29.18;29.03
15193;BME280;7697;51.630;7.484;2023-06-14T14:56:45;-18037.34;;;28.99;29.80
15193;BME280;7697;51.630;7.484;2023-06-14T15:01:47;-18039.53;;;29.05;29.49
15193;BME280;7697;51.630;7.484;2023-06-14T15:06:50;-18044.22;;;29.20;29.48
15193;BME280;7697;51.630;7.484;2023-06-14T15:11:52;-18042.53;;;29.15;29.51
15193;BME280;7697;51.630;7.484;2023-06-14T15:16:54;-18032.16;;;28.83;29.55
15193;BME280;7697;51.630;7.484;2023-06-14T15:21:57;-18032.16;;;28.83;29.79
15193;BME280;7697;51.630;7.484;2023-06-14T15:26:59;-18034.50;;;28.90;29.90
15193;BME280;7697;51.630;7.484;2023-06-14T15:32:01;-18038.53;;;29.02;30.35
15193;BME280;7697;51.630;7.484;2023-06-14T15:37:05;-18038.34;;;29.02;29.74
15193;BME280;7697;51.630;7.484;2023-06-14T15:42:07;-18032.16;;;28.83;30.04
15193;BME280;7697;51.630;7.484;2023-06-14T15:47:09;-18027.78;;;28.70;30.67
15193;BME280;7697;51.630;7.484;2023-06-14T15:52:12;-18022.41;;;28.54;30.67
15193;BME280;7697;51.630;7.484;2023-06-14T15:57:14;-18022.41;;;28.54;30.54
15193;BME280;7697;51.630;7.484;2023-06-14T16:02:15;-18016.06;;;28.34;30.62
15193;BME280;7697;51.630;7.484;2023-06-14T16:07:19;-18020.75;;;28.49;30.20
15193;BME280;7697;51.630;7.484;2023-06-14T16:12:21;-18022.41;;;28.54;30.23
15193;BME280;7697;51.630;7.484;2023-06-14T16:17:23;-18020.41;;;28.48;31.13
15193;BME280;7697;51.630;7.484;2023-06-14T16:22:27;-18013.38;;;28.26;31.29
15193;BME280;7697;51.630;7.484;2023-06-14T16:27:29;-18000.63;;;27.88;32.11
15193;BME280;7697;51.630;7.484;2023-06-14T16:32:32;-18000.63;;;27.88;31.93
15193;BME280;7697;51.630;7.484;2023-06-14T16:37:35;-17994.91;;;27.71;32.99
15193;BME280;7697;51.630;7.484;2023-06-14T16:42:36;-17986.88;;;27.46;32.92
15193;BME280;7697;51.630;7.484;2023-06-14T16:47:38;-17981.66;;;27.31;33.30
15193;BME280;7697;51.630;7.484;2023-06-14T16:52:42;-17976.13;;;27.14;34.07
15193;BME280;7697;51.630;7.484;2023-06-14T16:57:43;-17968.91;;;26.92;34.15
15193;BME280;7697;51.630;7.484;2023-06-14T17:02:45;-17958.00;;;26.59;34.63
15193;BME280;7697;51.630;7.484;2023-06-14T17:07:50;-17958.00;;;26.59;34.92
15193;BME280;7697;51.630;7.484;2023-06-14T17:12:51;-17955.16;;;26.50;35.30
15193;BME280;7697;51.630;7.484;2023-06-14T17:17:53;-17953.66;;;26.46;35.14
15193;BME280;7697;51.630;7.484;2023-06-14T17:22:56;-17950.81;;;26.37;35.02
15193;BME280;7697;51.630;7.484;2023-06-14T17:27:58;-17946.59;;;26.25;34.84
15193;BME280;7697;51.630;7.484;2023-06-14T17:33:00;-17943.91;;;26.16;35.03
15193;BME280;7697;51.630;7.484;2023-06-14T17:38:03;-17937.88;;;25.98;35.21
15193;BME280;7697;51.630;7.484;2023-06-14T17:43:05;-17933.19;;;25.84;35.71
15193;BME280;7697;51.630;7.484;2023-06-14T17:48:07;-17933.34;;;25.85;35.08
15193;BME280;7697;51.630;7.484;2023-06-14T17:53:11;-17927.81;;;25.68;35.57
15193;BME280;7697;51.630;7.484;2023-06-14T17:58:13;-17925.81;;;25.62;35.58
15193;BME280;7697;51.630;7.484;2023-06-14T18:03:14;-17926.81;;;25.65;35.70
15193;BME280;7697;51.630;7.484;2023-06-14T18:08:18;-17924.13;;;25.57;35.92
15193;BME280;7697;51.630;7.484;2023-06-14T18:13:19;-17922.78;;;25.53;35.83
15193;BME280;7697;51.630;7.484;2023-06-14T18:18:21;-17919.75;;;25.43;36.41
15193;BME280;7697;51.630;7.484;2023-06-14T18:23:24;-17917.06;;;25.35;36.79
15193;BME280;7697;51.630;7.484;2023-06-14T18:28:26;-17917.06;;;25.35;36.67
15193;BME280;7697;51.630;7.484;2023-06-14T18:33:28;-17918.75;;;25.40;36.83
15193;BME280;7697;51.630;7.484;2023-06-14T18:38:31;-17916.75;;;25.34;37.07
15193;BME280;7697;51.630;7.484;2023-06-14T18:43:33;-17913.22;;;25.24;37.58
15193;BME280;7697;51.630;7.484;2023-06-14T18:48:35;-17909.69;;;25.13;38.16
15193;BME280;7697;51.630;7.484;2023-06-14T18:53:38;-17909.69;;;25.13;38.16
15193;BME280;7697;51.630;7.484;2023-06-14T18:58:41;-17909.69;;;25.13;38.53
15193;BME280;7697;51.630;7.484;2023-06-14T19:03:43;-17909.88;;;25.14;38.35
15193;BME280;7697;51.630;7.484;2023-06-14T19:08:46;-17908.53;;;25.10;38.94
15193;BME280;7697;51.630;7.484;2023-06-14T19:13:48;-17904.31;;;24.97;39.03
15193;BME280;7697;51.630;7.484;2023-06-14T19:18:50;-17902.66;;;24.92;39.56
15193;BME280;7697;51.630;7.484;2023-06-14T19:23:53;-17898.97;;;24.81;40.06
15193;BME280;7697;51.630;7.484;2023-06-14T19:28:56;-17896.28;;;24.73;40.09
15193;BME280;7697;51.630;7.484;2023-06-14T19:33:59;-17890.56;;;24.55;40.23
15193;BME280;7697;51.630;7.484;2023-06-14T19:39:02;-17887.56;;;24.46;40.72
15193;BME280;7697;51.630;7.484;2023-06-14T19:44:05;-17886.03;;;24.42;40.53
15193;BME280;7697;51.630;7.484;2023-06-14T19:49:06;-17882.84;;;24.32;41.25
15193;BME280;7697;51.630;7.484;2023-06-14T19:54:10;-17877.97;;;24.17;41.63
15193;BME280;7697;51.630;7.484;2023-06-14T19:59:11;-17873.63;;;24.04;41.73
15193;BME280;7697;51.630;7.484;2023-06-14T20:04:13;-17869.09;;;23.90;42.12
15193;BME280;7697;51.630;7.484;2023-06-14T20:09:17;-17866.06;;;23.81;42.67
15193;BME280;7697;51.630;7.484;2023-06-14T20:14:19;-17860.03;;;23.63;43.00
15193;BME280;7697;51.630;7.484;2023-06-14T20:19:21;-17855.00;;;23.48;43.50
15193;BME280;7697;51.630;7.484;2023-06-14T20:24:24;-17848.97;;;23.30;44.49
15193;BME280;7697;51.630;7.484;2023-06-14T20:29:26;-17847.78;;;23.26;44.59
15193;BME280;7697;51.630;7.484;2023-06-14T20:34:28;-17843.75;;;23.14;45.09
15193;BME280;7697;51.630;7.484;2023-06-14T20:39:32;-17839.91;;;23.02;45.44
15193;BME280;7697;51.630;7.484;2023-06-14T20:44:34;-17832.84;;;22.81;45.54
15193;BME280;7697;51.630;7.484;2023-06-14T20:49:40;-17830.16;;;22.73;46.17
15193;BME280;7697;51.630;7.484;2023-06-14T20:54:44;-17827.66;;;22.65;45.96
15193;BME280;7697;51.630;7.484;2023-06-14T20:59:46;-17825.81;;;22.60;46.81
15193;BME280;7697;51.630;7.484;2023-06-14T21:04:48;-17821.78;;;22.48;46.92
15193;BME280;7697;51.630;7.484;2023-06-14T21:09:52;-17818.41;;;22.37;47.01
15193;BME280;7697;51.630;7.484;2023-06-14T21:14:54;-17817.06;;;22.33;47.45
15193;BME280;7697;51.630;7.484;2023-06-14T21:19:55;-17815.06;;;22.27;47.87
15193;BME280;7697;51.630;7.484;2023-06-14T21:24:59;-17810.69;;;22.14;48.00
15193;BME280;7697;51.630;7.484;2023-06-14T21:30:01;-17807.69;;;22.05;48.56
15193;BME280;7697;51.630;7.484;2023-06-14T21:35:05;-17803.66;;;21.93;48.53
15193;BME280;7697;51.630;7.484;2023-06-14T21:40:10;-17803.66;;;21.93;48.95
15193;BME280;7697;51.630;7.484;2023-06-14T21:45:12;-17800.63;;;21.84;49.12
15193;BME280;7697;51.630;7.484;2023-06-14T21:50:14;-17797.09;;;21.73;49.30
15193;BME280;7697;51.630;7.484;2023-06-14T21:55:17;-17795.44;;;21.68;49.38
15193;BME280;7697;51.630;7.484;2023-06-14T22:00:23;-17792.06;;;21.58;50.13
15193;BME280;7697;51.630;7.484;2023-06-14T22:05:25;-17788.22;;;21.46;50.32
15193;BME280;7697;51.630;7.484;2023-06-14T22:10:28;-17785.69;;;21.39;50.78
15193;BME280;7697;51.630;7.484;2023-06-14T22:15:32;-17779.81;;;21.21;51.09
15193;BME280;7697;51.630;7.484;2023-06-14T22:20:35;-17776.97;;;21.12;51.56
15193;BME280;7697;51.630;7.484;2023-06-14T22:25:39;-17776.47;;;21.11;51.69
15193;BME280;7697;51.630;7.484;2023-06-14T22:30:41;-17773.94;;;21.03;51.43
15193;BME280;7697;51.630;7.484;2023-06-14T22:35:45;-17772.44;;;20.98;51.75
15193;BME280;7697;51.630;7.484;2023-06-14T22:40:48;-17768.56;;;20.87;52.36
15193;BME280;7697;51.630;7.484;2023-06-14T22:45:50;-17763.53;;;20.72;52.60
15193;BME280;7697;51.630;7.484;2023-06-14T22:50:55;-17762.38;;;20.68;52.65
15193;BME280;7697;51.630;7.484;2023-06-14T22:55:58;-17756.84;;;20.51;52.80
15193;BME280;7697;51.630;7.484;2023-06-14T23:01:00;-17752.81;;;20.39;53.32
15193;BME280;7697;51.630;7.484;2023-06-14T23:06:02;-17749.09;;;20.28;53.47
15193;BME280;7697;51.630;7.484;2023-06-14T23:11:09;-17746.94;;;20.21;53.65
15193;BME280;7697;51.630;7.484;2023-06-14T23:16:11;-17743.56;;;20.11;53.95
15193;BME280;7697;51.630;7.484;2023-06-14T23:21:15;-17736.69;;;19.91;54.23
15193;BME280;7697;51.630;7.484;2023-06-14T23:26:19;-17735.19;;;19.86;54.71
15193;BME280;7697;51.630;7.484;2023-06-14T23:31:24;-17730.16;;;19.71;54.85
15193;BME280;7697;51.630;7.484;2023-06-14T23:36:27;-17727.81;;;19.64;55.09
15193;BME280;7697;51.630;7.484;2023-06-14T23:41:33;-17723.44;;;19.51;55.48
15193;BME280;7697;51.630;7.484;2023-06-14T23:46:35;-17721.06;;;19.43;55.97
15193;BME280;7697;51.630;7.484;2023-06-14T23:51:37;-17718.72;;;19.36;56.11
15193;BME280;7697;51.630;7.484;2023-06-14T23:56:43;-17715.03;;;19.25;56.46
